createdAt,value
2023-05-12T00:01:08.366Z,97569.22
2023-05-12T00:03:35.362Z,97556.00
2023-05-12T00:06:04.545Z,97557.63
2023-05-12T00:08:31.627Z,97559.41
2023-05-12T00:10:58.569Z,97560.38
2023-05-12T00:13:25.377Z,97565.34
2023-05-12T00:15:52.193Z,97564.41
2023-05-12T00:18:19.076Z,97565.53
2023-05-12T00:20:45.781Z,97562.53
2023-05-12T00:23:12.512Z,97559.97
2023-05-12T00:25:39.431Z,97563.81
2023-05-12T00:28:06.256Z,97561.72
2023-05-12T00:30:33.073Z,97563.69
2023-05-12T00:32:59.814Z,97571.38
2023-05-12T00:35:26.653Z,97566.13
2023-05-12T00:37:53.482Z,97575.72
2023-05-12T00:40:20.491Z,97569.50
2023-05-12T00:42:47.412Z,97565.50
2023-05-12T00:45:15.110Z,97558.78
2023-05-12T00:47:42.162Z,97570.16
2023-05-12T00:50:09.661Z,97563.91
2023-05-12T00:52:36.749Z,97563.25
2023-05-12T00:55:05.429Z,97564.69
2023-05-12T00:57:33.987Z,97559.59
2023-05-12T01:00:00.761Z,97567.44
2023-05-12T01:02:27.566Z,97567.28
2023-05-12T01:04:54.319Z,97567.91
2023-05-12T01:07:22.918Z,97581.03
2023-05-12T01:09:55.069Z,97574.16
2023-05-12T01:12:22.132Z,97581.66
2023-05-12T01:14:50.468Z,97571.25
2023-05-12T01:17:20.836Z,97555.25
2023-05-12T01:19:49.665Z,97581.50
2023-05-12T01:22:17.508Z,97568.38
2023-05-12T01:25:07.788Z,97582.78
2023-05-12T01:27:34.947Z,97562.63
2023-05-12T01:30:04.604Z,97574.28
2023-05-12T01:32:31.470Z,97568.69
2023-05-12T01:34:58.252Z,97558.78
2023-05-12T01:37:27.071Z,97580.97
2023-05-12T01:39:54.518Z,97571.22
2023-05-12T01:42:21.793Z,97581.31
2023-05-12T01:44:48.420Z,97586.41
2023-05-12T01:47:16.202Z,97590.75
2023-05-12T01:49:43.028Z,97581.78
2023-05-12T01:52:09.815Z,97571.84
2023-05-12T01:54:36.419Z,97589.28
2023-05-12T01:57:03.172Z,97586.38
2023-05-12T01:59:29.801Z,97590.25
2023-05-12T02:01:56.511Z,97584.47
2023-05-12T02:04:23.176Z,97580.94
2023-05-12T02:06:50.086Z,97582.34
2023-05-12T02:09:16.937Z,97581.06
2023-05-12T02:11:43.609Z,97591.59
2023-05-12T02:14:10.215Z,97570.78
2023-05-12T02:16:37.094Z,97582.97
2023-05-12T02:19:04.383Z,97584.41
2023-05-12T02:21:31.502Z,97583.63
2023-05-12T02:23:58.281Z,97580.03
2023-05-12T02:26:25.040Z,97580.03
2023-05-12T02:28:51.720Z,97582.75
2023-05-12T02:31:18.418Z,97577.03
2023-05-12T02:33:45.135Z,97582.28
2023-05-12T02:36:11.809Z,97583.53
2023-05-12T02:38:40.140Z,97584.94
2023-05-12T02:41:07.754Z,97587.81
2023-05-12T02:43:34.560Z,97585.25
2023-05-12T02:46:01.680Z,97587.13
2023-05-12T02:48:28.508Z,97583.28
2023-05-12T02:50:55.240Z,97573.66
2023-05-12T02:53:21.978Z,97585.84
2023-05-12T02:55:49.145Z,97582.81
2023-05-12T02:58:15.985Z,97586.56
2023-05-12T03:00:42.650Z,97592.94
2023-05-12T03:03:09.534Z,97589.59
2023-05-12T03:05:36.425Z,97586.25
2023-05-12T03:08:03.174Z,97597.28
2023-05-12T03:10:31.131Z,97591.72
2023-05-12T03:12:57.999Z,97596.38
2023-05-12T03:15:24.773Z,97571.69
2023-05-12T03:17:51.568Z,97594.16
2023-05-12T03:20:18.497Z,97584.69
2023-05-12T03:22:45.365Z,97592.78
2023-05-12T03:25:12.617Z,97590.53
2023-05-12T03:27:39.867Z,97591.78
2023-05-12T03:30:07.331Z,97601.22
2023-05-12T03:32:34.059Z,97601.56
2023-05-12T03:35:00.837Z,97593.16
2023-05-12T03:37:27.496Z,97597.47
2023-05-12T03:39:56.320Z,97595.31
2023-05-12T03:42:24.255Z,97597.59
2023-05-12T03:44:52.226Z,97590.31
2023-05-12T03:47:19.289Z,97582.63
2023-05-12T03:49:46.006Z,97599.94
2023-05-12T03:52:13.080Z,97595.00
2023-05-12T03:54:39.958Z,97599.13
2023-05-12T03:57:06.785Z,97592.28
2023-05-12T03:59:33.549Z,97596.59
2023-05-12T04:02:00.271Z,97586.88
2023-05-12T04:04:26.966Z,97588.31
2023-05-12T04:06:53.714Z,97581.03
2023-05-12T04:09:21.534Z,97583.31
2023-05-12T04:11:48.251Z,97587.84
2023-05-12T04:14:15.327Z,97589.09
2023-05-12T04:16:42.141Z,97584.72
2023-05-12T04:19:08.964Z,97589.56
2023-05-12T04:21:35.922Z,97588.69
2023-05-12T04:24:02.568Z,97595.09
2023-05-12T04:26:30.513Z,97599.53
2023-05-12T04:28:57.172Z,97598.34
2023-05-12T04:31:23.911Z,97601.53
2023-05-12T04:33:52.022Z,97599.47
2023-05-12T04:36:18.827Z,97597.91
2023-05-12T04:38:45.987Z,97595.66
2023-05-12T04:41:12.882Z,97601.09
2023-05-12T04:46:09.446Z,97601.19
2023-05-12T04:48:42.176Z,97592.94
2023-05-12T04:51:09.196Z,97603.41
2023-05-12T04:53:36.499Z,97604.34
2023-05-12T04:56:03.765Z,97589.09
2023-05-12T04:58:30.732Z,97611.66
2023-05-12T05:00:57.440Z,97609.03
2023-05-12T05:03:24.488Z,97601.59
2023-05-12T05:05:51.282Z,97608.16
2023-05-12T05:08:18.626Z,97610.00
2023-05-12T05:10:45.438Z,97614.22
2023-05-12T05:13:12.279Z,97611.34
2023-05-12T05:15:39.040Z,97611.75
2023-05-12T05:18:06.168Z,97618.03
2023-05-12T05:20:34.692Z,97618.34
2023-05-12T05:23:01.538Z,97613.66
2023-05-12T05:25:28.412Z,97615.34
2023-05-12T05:27:55.918Z,97621.75
2023-05-12T05:30:22.636Z,97626.41
2023-05-12T05:32:49.420Z,97627.53
2023-05-12T05:35:16.150Z,97621.41
2023-05-12T05:37:43.159Z,97624.94
2023-05-12T05:40:10.147Z,97617.28
2023-05-12T05:43:27.709Z,97631.72
2023-05-12T05:45:56.107Z,97627.13
2023-05-12T05:48:22.952Z,97628.72
2023-05-12T05:50:51.732Z,97629.97
2023-05-12T05:53:19.703Z,97629.38
2023-05-12T05:55:48.765Z,97639.44
2023-05-12T05:58:15.875Z,97632.50
2023-05-12T06:00:43.753Z,97637.66
2023-05-12T06:03:10.594Z,97614.94
2023-05-12T06:05:38.083Z,97631.81
2023-05-12T06:08:05.504Z,97636.22
2023-05-12T06:10:32.323Z,97631.81
2023-05-12T06:12:58.916Z,97637.53
2023-05-12T06:15:25.622Z,97642.38
2023-05-12T06:17:56.072Z,97646.94
2023-05-12T06:20:23.603Z,97637.66
2023-05-12T06:22:50.464Z,97654.06
2023-05-12T06:25:22.797Z,97636.53
2023-05-12T06:28:15.456Z,97656.13
2023-05-12T06:30:42.280Z,97652.47
2023-05-12T06:33:09.170Z,97653.81
2023-05-12T06:35:35.919Z,97625.72
2023-05-12T06:38:02.556Z,97665.41
2023-05-12T06:40:29.257Z,97650.78
2023-05-12T06:42:56.006Z,97660.88
2023-05-12T06:45:23.783Z,97654.97
2023-05-12T06:47:50.891Z,97638.69
2023-05-12T06:50:24.199Z,97657.63
2023-05-12T06:52:51.487Z,97653.63
2023-05-12T06:55:20.769Z,97661.28
2023-05-12T06:57:48.254Z,97668.25
2023-05-12T07:00:15.264Z,97652.66
2023-05-12T07:02:42.189Z,97655.53
2023-05-12T07:05:09.029Z,97644.94
2023-05-12T07:07:36.300Z,97660.97
2023-05-12T07:10:02.963Z,97672.06
2023-05-12T07:12:29.866Z,97670.69
2023-05-12T07:14:56.508Z,97661.13
2023-05-12T07:17:23.426Z,97650.91
2023-05-12T07:19:50.133Z,97646.03
2023-05-12T07:22:17.067Z,97657.53
2023-05-12T07:24:44.570Z,97668.50
2023-05-12T07:27:12.264Z,97671.16
2023-05-12T07:29:38.899Z,97639.22
2023-05-12T07:32:06.283Z,97658.66
2023-05-12T07:34:34.180Z,97665.41
2023-05-12T07:37:04.221Z,97660.50
2023-05-12T07:39:32.564Z,97669.88
2023-05-12T07:41:59.528Z,97673.56
2023-05-12T07:44:27.612Z,97657.09
2023-05-12T07:46:54.695Z,97666.41
2023-05-12T07:49:23.482Z,97669.09
2023-05-12T07:51:50.303Z,97657.00
2023-05-12T07:54:16.983Z,97670.22
2023-05-12T07:56:43.666Z,97668.88
2023-05-12T07:59:11.031Z,97658.84
2023-05-12T08:01:37.834Z,97664.09
2023-05-12T08:04:04.909Z,97664.81
2023-05-12T08:06:31.829Z,97666.41
2023-05-12T08:08:59.096Z,97675.16
2023-05-12T08:11:26.683Z,97672.16
2023-05-12T08:13:53.800Z,97694.91
2023-05-12T08:16:20.817Z,97662.38
2023-05-12T08:18:47.633Z,97664.03
2023-05-12T08:21:14.404Z,97673.44
2023-05-12T08:23:41.096Z,97670.28
2023-05-12T08:26:07.829Z,97682.13
2023-05-12T08:28:34.451Z,97668.44
2023-05-12T08:31:04.811Z,97667.31
2023-05-12T08:33:31.885Z,97680.47
2023-05-12T08:35:58.753Z,97691.69
2023-05-12T08:38:25.508Z,97676.22
2023-05-12T08:41:10.886Z,97666.34
2023-05-12T08:43:52.184Z,97672.03
2023-05-12T08:46:20.322Z,97689.00
2023-05-12T08:48:48.263Z,97680.53
2023-05-12T08:51:15.042Z,97694.88
2023-05-12T08:53:42.586Z,97681.94
2023-05-12T08:58:42.710Z,97676.00
2023-05-12T09:01:12.076Z,97674.28
2023-05-12T09:03:39.312Z,97687.88
2023-05-12T09:06:06.952Z,97681.53
2023-05-12T09:08:35.226Z,97676.88
2023-05-12T09:11:04.286Z,97676.94
2023-05-12T09:13:34.739Z,97678.63
2023-05-12T09:16:02.957Z,97674.72
2023-05-12T09:18:44.422Z,97709.44
2023-05-12T09:21:12.277Z,97686.16
2023-05-12T09:23:38.969Z,97696.81
2023-05-12T09:26:05.747Z,97677.03
2023-05-12T09:28:38.922Z,97659.06
2023-05-12T09:31:19.200Z,97667.22
2023-05-12T09:33:46.721Z,97684.84
2023-05-12T09:36:21.538Z,97691.25
2023-05-12T09:39:04.886Z,97682.25
2023-05-12T09:41:35.082Z,97676.22
2023-05-12T09:44:02.195Z,97682.84
2023-05-12T09:46:32.220Z,97677.81
2023-05-12T09:48:59.510Z,97687.34
2023-05-12T09:51:27.074Z,97675.28
2023-05-12T09:53:53.967Z,97696.50
2023-05-12T09:56:21.441Z,97686.22
2023-05-12T09:58:49.739Z,97684.97
2023-05-12T10:01:23.732Z,97679.88
2023-05-12T10:03:56.818Z,97675.50
2023-05-12T10:06:37.580Z,97679.13
2023-05-12T10:09:19.829Z,97682.13
2023-05-12T10:11:47.919Z,97654.78
2023-05-12T10:14:15.280Z,97686.41
2023-05-12T10:16:42.029Z,97681.25
2023-05-12T10:19:09.958Z,97684.81
2023-05-12T10:21:38.330Z,97673.41
2023-05-12T10:24:05.410Z,97670.84
2023-05-12T10:26:37.711Z,97672.47
2023-05-12T10:29:04.529Z,97706.50
2023-05-12T10:31:31.635Z,97688.06
2023-05-12T10:33:59.311Z,97696.19
2023-05-12T10:36:26.393Z,97669.59
2023-05-12T10:38:53.283Z,97691.91
2023-05-12T10:41:31.131Z,97651.47
2023-05-12T10:43:58.122Z,97660.53
2023-05-12T10:46:26.794Z,97661.94
2023-05-12T10:49:04.529Z,97680.09
2023-05-12T10:51:33.853Z,97672.25
2023-05-12T10:54:06.017Z,97671.72
2023-05-12T10:56:38.799Z,97668.91
2023-05-12T10:59:07.032Z,97671.72
2023-05-12T11:01:34.699Z,97675.06
2023-05-12T11:04:16.943Z,97681.16
2023-05-12T11:06:45.220Z,97662.19
2023-05-12T11:09:13.521Z,97680.19
2023-05-12T11:11:40.847Z,97684.66
2023-05-12T11:14:08.557Z,97659.84
2023-05-12T11:16:42.184Z,97666.69
2023-05-12T11:19:08.913Z,97677.31
2023-05-12T11:21:35.993Z,97679.88
2023-05-12T11:24:03.620Z,97676.69
2023-05-12T11:26:30.511Z,97660.22
2023-05-12T11:28:58.118Z,97670.91
2023-05-12T11:31:25.193Z,97659.88
2023-05-12T11:34:12.003Z,97678.78
2023-05-12T11:36:42.472Z,97668.09
2023-05-12T11:39:24.851Z,97691.38
2023-05-12T11:41:59.306Z,97689.81
2023-05-12T11:44:32.755Z,97670.28
2023-05-12T11:47:01.828Z,97663.91
2023-05-12T11:49:30.668Z,97657.22
2023-05-12T11:52:02.597Z,97666.47
2023-05-12T11:54:30.474Z,97665.38
2023-05-12T11:56:59.116Z,97668.97
2023-05-12T11:59:33.812Z,97689.78
2023-05-12T12:02:02.517Z,97674.44
2023-05-12T12:04:33.576Z,97665.94
2023-05-12T12:07:01.375Z,97693.56
2023-05-12T12:09:41.429Z,97674.56
2023-05-12T12:12:09.036Z,97695.16
2023-05-12T12:14:38.205Z,97669.00
2023-05-12T12:17:05.962Z,97667.53
2023-05-12T12:19:32.755Z,97681.03
2023-05-12T12:21:59.473Z,97686.88
2023-05-12T12:24:26.505Z,97680.88
2023-05-12T12:26:53.309Z,97691.09
2023-05-12T12:29:20.099Z,97655.63
2023-05-12T12:31:47.051Z,97655.06
2023-05-12T12:34:14.284Z,97661.91
2023-05-12T12:36:41.444Z,97681.50
2023-05-12T12:39:08.227Z,97666.09
2023-05-12T12:41:35.008Z,97669.41
2023-05-12T12:44:01.635Z,97689.00
2023-05-12T12:46:28.441Z,97663.75
2023-05-12T12:48:55.126Z,97655.22
2023-05-12T12:51:21.888Z,97667.28
2023-05-12T12:53:48.595Z,97665.66
2023-05-12T12:56:15.563Z,97676.22
2023-05-12T12:58:42.240Z,97686.22
2023-05-12T13:01:09.141Z,97696.47
2023-05-12T13:03:35.896Z,97692.44
2023-05-12T13:06:02.607Z,97671.03
2023-05-12T13:08:29.850Z,97685.56
2023-05-12T13:10:56.596Z,97663.19
2023-05-12T13:13:24.693Z,97677.09
2023-05-12T13:15:53.469Z,97666.59
2023-05-12T13:18:20.882Z,97660.53
2023-05-12T13:20:47.687Z,97672.81
2023-05-12T13:23:14.787Z,97661.50
2023-05-12T13:25:41.437Z,97657.66
2023-05-12T13:28:08.505Z,97672.34
2023-05-12T13:30:35.637Z,97665.16
2023-05-12T13:33:05.121Z,97653.69
2023-05-12T13:35:32.672Z,97649.50
2023-05-12T13:38:00.470Z,97668.66
2023-05-12T13:40:27.647Z,97644.59
2023-05-12T13:42:54.606Z,97666.28
2023-05-12T13:45:21.476Z,97652.75
2023-05-12T13:47:48.827Z,97656.66
2023-05-12T13:50:15.689Z,97656.94
2023-05-12T13:52:42.462Z,97680.22
2023-05-12T13:55:09.964Z,97663.69
2023-05-12T13:57:36.585Z,97646.28
2023-05-12T14:00:03.670Z,97645.28
2023-05-12T14:02:30.429Z,97628.72
2023-05-12T14:04:57.148Z,97637.72
2023-05-12T14:07:24.021Z,97669.44
2023-05-12T14:09:50.664Z,97661.13
2023-05-12T14:12:17.330Z,97648.09
2023-05-12T14:14:49.696Z,97645.59
2023-05-12T14:17:17.353Z,97648.38
2023-05-12T14:19:44.260Z,97662.53
2023-05-12T14:22:22.312Z,97623.63
2023-05-12T14:24:51.882Z,97641.50
2023-05-12T14:27:18.879Z,97647.44
2023-05-12T14:29:45.504Z,97642.66
2023-05-12T14:32:12.965Z,97652.28
2023-05-12T14:34:39.668Z,97637.25
2023-05-12T14:37:06.792Z,97649.81
2023-05-12T14:39:33.478Z,97651.41
2023-05-12T14:42:00.245Z,97639.63
2023-05-12T14:44:27.041Z,97654.66
2023-05-12T14:46:53.802Z,97663.66
2023-05-12T14:49:21.830Z,97649.72
2023-05-12T14:51:48.968Z,97659.03
2023-05-12T14:54:25.144Z,97642.75
2023-05-12T14:56:52.876Z,97729.47
2023-05-12T14:59:19.776Z,97651.13
2023-05-12T15:01:46.701Z,97653.44
2023-05-12T15:04:13.554Z,97641.63
2023-05-12T15:06:40.298Z,97673.69
2023-05-12T15:09:07.391Z,97660.75
2023-05-12T15:11:34.186Z,97666.22
2023-05-12T15:14:00.806Z,97672.25
2023-05-12T15:16:28.312Z,97658.06
2023-05-12T15:18:55.455Z,97637.16
2023-05-12T15:21:22.507Z,97595.56
2023-05-12T15:23:49.496Z,97642.59
2023-05-12T15:26:31.838Z,97633.03
2023-05-12T15:29:00.258Z,97640.97
2023-05-12T15:31:31.639Z,97671.94
2023-05-12T15:33:59.567Z,97643.09
2023-05-12T15:36:26.209Z,97661.94
2023-05-12T15:38:52.976Z,97646.16
2023-05-12T15:41:23.894Z,97661.94
2023-05-12T15:43:50.582Z,97652.81
2023-05-12T15:46:17.321Z,97648.44
2023-05-12T15:48:44.207Z,97718.31
2023-05-12T15:51:10.927Z,97659.91
2023-05-12T15:53:37.656Z,97667.47
2023-05-12T15:56:05.368Z,97658.09
2023-05-12T15:58:32.350Z,97646.22
2023-05-12T16:00:59.222Z,97655.19
2023-05-12T16:03:26.325Z,97640.94
2023-05-12T16:05:53.166Z,97649.41
2023-05-12T16:08:20.573Z,97634.66
2023-05-12T16:10:47.276Z,97667.91
2023-05-12T16:13:14.750Z,97670.56
2023-05-12T16:15:41.384Z,97662.19
2023-05-12T16:18:11.091Z,97666.84
2023-05-12T16:20:39.140Z,97680.16
2023-05-12T16:23:05.914Z,97708.00
2023-05-12T16:25:32.567Z,97677.19
2023-05-12T16:27:59.252Z,97667.19
2023-05-12T16:30:26.587Z,97695.53
2023-05-12T16:32:53.498Z,97676.97
2023-05-12T16:35:21.454Z,97671.00
2023-05-12T16:37:48.326Z,97669.28
2023-05-12T16:40:15.620Z,97666.81
2023-05-12T16:42:42.868Z,97675.13
2023-05-12T16:45:11.141Z,97680.94
2023-05-12T16:47:38.030Z,97671.41
2023-05-12T16:50:05.627Z,97685.44
2023-05-12T16:52:32.277Z,97672.41
2023-05-12T16:54:59.011Z,97685.66
2023-05-12T16:57:25.987Z,97694.28
2023-05-12T16:59:52.683Z,97689.88
2023-05-12T17:02:19.442Z,97676.69
2023-05-12T17:04:46.797Z,97686.09
2023-05-12T17:07:13.484Z,97684.44
2023-05-12T17:09:43.425Z,97685.09
2023-05-12T17:12:11.074Z,97691.09
2023-05-12T17:14:38.100Z,97683.22
2023-05-12T17:17:05.261Z,97696.44
2023-05-12T17:19:35.778Z,97696.34
2023-05-12T17:22:02.561Z,97688.38
2023-05-12T17:24:30.504Z,97701.31
2023-05-12T17:26:57.884Z,97693.34
2023-05-12T17:29:24.623Z,97709.69
2023-05-12T17:31:51.490Z,97702.81
2023-05-12T17:34:18.321Z,97693.25
2023-05-12T17:36:45.111Z,97707.25
2023-05-12T17:39:14.969Z,97705.50
2023-05-12T17:41:42.731Z,97708.53
2023-05-12T17:44:10.298Z,97697.63
2023-05-12T17:46:37.088Z,97707.47
2023-05-12T17:49:03.722Z,97710.38
2023-05-12T17:51:30.710Z,97706.69
2023-05-12T17:53:57.324Z,97724.56
2023-05-12T17:56:24.037Z,97722.09
2023-05-12T17:58:50.704Z,97728.28
2023-05-12T18:01:17.556Z,97724.66
2023-05-12T18:03:44.355Z,97728.34
2023-05-12T18:06:12.946Z,97721.97
2023-05-12T18:08:40.387Z,97728.53
2023-05-12T18:11:07.767Z,97726.03
2023-05-12T18:13:35.445Z,97730.97
2023-05-12T18:16:02.902Z,97726.88
2023-05-12T18:18:29.943Z,97721.88
2023-05-12T18:20:56.893Z,97730.81
2023-05-12T18:23:23.587Z,97736.91
2023-05-12T18:25:51.267Z,97733.97
2023-05-12T18:28:17.944Z,97736.03
2023-05-12T18:30:44.785Z,97735.03
2023-05-12T18:33:11.623Z,97736.34
2023-05-12T18:35:38.455Z,97752.34
2023-05-12T18:38:05.250Z,97755.66
2023-05-12T18:40:31.903Z,97746.75
2023-05-12T18:42:58.754Z,97759.53
2023-05-12T18:45:25.412Z,97751.44
2023-05-12T18:47:52.170Z,97738.34
2023-05-12T18:50:19.512Z,97762.97
2023-05-12T18:52:47.228Z,97771.00
2023-05-12T18:55:13.923Z,97768.81
2023-05-12T18:57:40.703Z,97764.81
2023-05-12T19:00:10.083Z,97773.59
2023-05-12T19:02:36.943Z,97775.78
2023-05-12T19:05:05.071Z,97775.56
2023-05-12T19:07:31.773Z,97778.72
2023-05-12T19:09:59.487Z,97776.06
2023-05-12T19:12:26.519Z,97771.50
2023-05-12T19:14:53.298Z,97767.81
2023-05-12T19:17:19.938Z,97773.66
2023-05-12T19:19:46.871Z,97782.31
2023-05-12T19:22:13.705Z,97781.38
2023-05-12T19:24:40.572Z,97787.06
2023-05-12T19:27:07.256Z,97772.47
2023-05-12T19:29:33.891Z,97782.50
2023-05-12T19:32:00.685Z,97779.97
2023-05-12T19:34:29.702Z,97787.25
2023-05-12T19:36:58.361Z,97776.16
2023-05-12T19:39:25.121Z,97787.31
2023-05-12T19:41:51.889Z,97787.22
2023-05-12T19:44:18.734Z,97798.34
2023-05-12T19:46:48.850Z,97789.44
2023-05-12T19:49:15.839Z,97800.00
2023-05-12T19:51:43.669Z,97806.03
2023-05-12T19:54:10.637Z,97805.56
2023-05-12T19:56:37.643Z,97800.78
2023-05-12T19:59:04.354Z,97794.09
2023-05-12T20:01:31.134Z,97795.22
2023-05-12T20:03:59.036Z,97790.28
2023-05-12T20:06:25.748Z,97796.22
2023-05-12T20:08:52.747Z,97802.03
2023-05-12T20:11:19.522Z,97798.38
2023-05-12T20:13:46.277Z,97786.03
2023-05-12T20:16:13.134Z,97797.91
2023-05-12T20:18:40.463Z,97798.56
2023-05-12T20:21:07.177Z,97796.94
2023-05-12T20:23:33.893Z,97785.09
2023-05-12T20:26:00.938Z,97783.34
2023-05-12T20:28:28.441Z,97789.63
2023-05-12T20:30:55.253Z,97796.69
2023-05-12T20:33:21.973Z,97791.41
2023-05-12T20:35:48.766Z,97794.16
2023-05-12T20:38:15.462Z,97761.97
2023-05-12T20:40:42.234Z,97782.16
2023-05-12T20:43:08.932Z,97778.63
2023-05-12T20:45:36.580Z,97784.56
2023-05-12T20:48:03.419Z,97777.03
2023-05-12T20:50:30.918Z,97782.81
2023-05-12T20:52:57.674Z,97787.66
2023-05-12T20:55:25.797Z,97766.28
2023-05-12T20:57:52.534Z,97764.94
2023-05-12T21:00:19.527Z,97769.91
2023-05-12T21:02:47.322Z,97788.47
2023-05-12T21:05:14.197Z,97775.00
2023-05-12T21:07:41.028Z,97778.53
2023-05-12T21:10:08.212Z,97775.34
2023-05-12T21:12:34.940Z,97778.53
2023-05-12T21:15:02.016Z,97779.22
2023-05-12T21:17:28.659Z,97784.66
2023-05-12T21:19:55.458Z,97787.72
2023-05-12T21:22:22.178Z,97779.88
2023-05-12T21:24:51.068Z,97785.19
2023-05-12T21:27:18.434Z,97797.69
2023-05-12T21:29:45.043Z,97777.31
2023-05-12T21:32:11.883Z,97782.78
2023-05-12T21:34:38.627Z,97788.06
2023-05-12T21:37:05.531Z,97785.50
2023-05-12T21:39:32.173Z,97778.16
2023-05-12T21:41:59.107Z,97785.03
2023-05-12T21:44:25.721Z,97774.66
2023-05-12T21:46:52.428Z,97779.78
2023-05-12T21:49:19.345Z,97791.84
2023-05-12T21:51:47.041Z,97783.03
2023-05-12T21:54:13.812Z,97783.22
2023-05-12T21:56:40.790Z,97790.59
2023-05-12T21:59:07.496Z,97790.81
2023-05-12T22:01:34.191Z,97764.09
2023-05-12T22:04:00.896Z,97786.16
2023-05-12T22:06:27.642Z,97789.09
2023-05-12T22:08:54.376Z,97796.31
2023-05-12T22:11:21.876Z,97794.41
2023-05-12T22:13:48.571Z,97789.63
2023-05-12T22:16:15.562Z,97787.53
2023-05-12T22:18:45.520Z,97785.78
2023-05-12T22:21:12.905Z,97785.31
2023-05-12T22:23:40.124Z,97788.19
2023-05-12T22:26:06.800Z,97796.22
2023-05-12T22:28:33.553Z,97800.38
2023-05-12T22:31:00.416Z,97798.00
2023-05-12T22:33:27.355Z,97771.56
2023-05-12T22:35:54.008Z,97776.53
2023-05-12T22:38:20.636Z,97782.47
2023-05-12T22:40:50.535Z,97782.47
2023-05-12T22:43:17.876Z,97776.34
2023-05-12T22:45:44.572Z,97774.94
2023-05-12T22:48:11.311Z,97768.84
2023-05-12T22:50:37.994Z,97766.44
2023-05-12T22:53:04.658Z,97781.81
2023-05-12T22:55:31.460Z,97765.31
2023-05-12T22:58:00.044Z,97780.88
2023-05-12T23:00:27.142Z,97778.31
2023-05-12T23:02:54.150Z,97781.81
2023-05-12T23:05:21.169Z,97777.81
2023-05-12T23:07:48.031Z,97786.47
2023-05-12T23:10:14.645Z,97789.34
2023-05-12T23:12:41.465Z,97793.19
2023-05-12T23:15:08.755Z,97781.66
2023-05-12T23:17:35.672Z,97763.56
2023-05-12T23:20:02.389Z,97779.25
2023-05-12T23:22:29.100Z,97793.03
2023-05-12T23:24:58.426Z,97784.38
2023-05-12T23:27:26.403Z,97789.69
2023-05-12T23:29:53.556Z,97793.84
2023-05-12T23:32:20.397Z,97794.16
2023-05-12T23:34:47.189Z,97788.09
2023-05-12T23:37:14.110Z,97783.25
2023-05-12T23:39:40.797Z,97785.69
2023-05-12T23:42:07.480Z,97794.78
2023-05-12T23:44:34.149Z,97792.25
2023-05-12T23:47:01.132Z,97794.31
2023-05-12T23:49:27.933Z,97794.00
2023-05-12T23:51:54.949Z,97782.97
2023-05-12T23:54:21.704Z,97787.56
2023-05-12T23:56:48.347Z,97785.31
2023-05-12T23:59:15.207Z,97796.53
